Data for 10/10/2007

Time Sea-Level Adjusted Pressure Absolute Pressure Temperature Relative Humidity Dew Point   
(mb) (inHg) (mb) (inHg) (C) (F) (%) (C) (F)
00:05 1018 30.06 848 25.04 11.5 52.7 61 4.4 39.9
00:10 1018 30.06 848 25.04 11.4 52.5 62 4.5 40.1
00:15 1018 30.06 848 25.04 11.3 52.4 61 4.2 39.5
00:20 1018 30.06 847 25.01 11.5 52.7 61 4.3 39.7
00:25 1018 30.06 847 25.01 11.5 52.7 61 4.3 39.8
00:30 1018 30.06 847 25.01 11.5 52.7 61 4.3 39.7
00:35 1018 30.06 847 25.01 11.6 52.9 61 4.3 39.8
00:40 1018 30.06 847 25.01 11.5 52.8 61 4.3 39.8
00:45 1018 30.06 847 25.01 11.4 52.6 61 4.2 39.6
00:50 1018 30.06 847 25.01 11.5 52.6 62 4.4 40
00:55 1018 30.06 847 25.01 11.3 52.3 62 4.3 39.8
01:00 1018 30.06 847 25.01 11.2 52.2 62 4.3 39.8
01:05 1018 30.06 847 25.01 11.2 52.1 62 4.2 39.6
01:10 1018 30.06 847 25.01 11.2 52.1 62 4.3 39.7
01:15 1018 30.06 847 25.01 11.1 52 62 4.2 39.5
01:20 1018 30.06 847 25.01 11.1 52 62 4.3 39.7
01:25 1018 30.06 847 25.01 11.1 51.9 62 4.1 39.4
01:30 1018 30.06 847 25.01 11.1 51.9 62 4.2 39.5
01:35 1018 30.06 847 25.01 11.1 51.9 62 4.1 39.4
01:40 1018 30.06 847 25.01 11.1 52 61 4 39.2
01:45 1018 30.06 847 25.01 11.1 52 62 4.1 39.4
01:50 1018 30.06 847 25.01 11 51.8 63 4.2 39.6
01:55 1017 30.03 847 25.01 10.8 51.5 63 4.1 39.5
02:00 1018 30.06 847 25.01 10.7 51.2 64 4.1 39.4
02:05 1017 30.03 847 25.01 10.6 51.1 64 4.1 39.5
02:10 1018 30.06 847 25.01 10.4 50.8 65 4.2 39.5
02:15 1017 30.03 847 25.01 10.4 50.6 65 4.1 39.4
02:20 1017 30.03 847 25.01 10.3 50.5 66 4.2 39.5
02:25 1017 30.03 847 25.01 10.2 50.3 66 4.1 39.4
02:30 1017 30.03 847 25.01 10.2 50.3 66 4.2 39.5
02:35 1017 30.03 847 25.01 10.1 50.1 67 4.2 39.5
02:40 1017 30.03 847 25.01 10 50 66 4 39.3
02:45 1017 30.03 846 24.98 10 50 66 3.9 39.1
02:50 1017 30.03 846 24.98 10 50 67 4.1 39.4
02:55 1017 30.03 846 24.98 9.9 49.9 67 4.1 39.5
03:00 1017 30.03 846 24.98 9.9 49.8 67 4 39.2
03:05 1017 30.03 846 24.98 9.9 49.9 66 4 39.2
03:10 1017 30.03 846 24.98 9.9 49.8 66 4 39.1
03:15 1017 30.03 846 24.98 9.8 49.7 67 4 39.1
03:20 1017 30.03 846 24.98 9.8 49.6 66 3.8 38.9
03:25 1017 30.03 846 24.98 9.8 49.6 67 4 39.1
03:30 1017 30.03 846 24.98 9.7 49.4 67 4 39.1
03:35 1017 30.03 846 24.98 9.6 49.2 68 3.9 39
03:40 1017 30.03 846 24.98 9.6 49.3 67 3.8 38.8
03:45 1017 30.03 846 24.98 9.6 49.3 67 3.8 38.9
03:50 1017 30.03 846 24.98 9.6 49.3 67 3.9 39
03:55 1017 30.03 846 24.98 9.6 49.2 67 3.8 38.9
04:00 1017 30.03 846 24.98 9.6 49.3 66 3.7 38.6
04:05 1017 30.03 846 24.98 9.7 49.4 66 3.7 38.6
04:10 1016 30 846 24.98 9.7 49.5 65 3.5 38.2
04:15 1016 30 846 24.98 9.9 49.8 64 3.4 38.2
04:20 1016 30 846 24.98 10 49.9 63 3.3 38
04:25 1016 30 846 24.98 10 50 63 3.4 38.1
04:30 1016 30 845 24.95 10 49.9 63 3.3 37.9
04:35 1016 30 845 24.95 10 49.9 62 3.1 37.5
04:40 1016 30 845 24.95 10 50 63 3.2 37.8
04:45 1016 30 845 24.95 9.8 49.6 64 3.3 38
04:50 1016 30 845 24.95 9.6 49.3 64 3.2 37.8
04:55 1016 30 845 24.95 9.5 49.1 65 3.2 37.8
05:00 1016 30 845 24.95 9.5 49 65 3.1 37.6
05:05 1016 30 845 24.95 9.5 49 64 3.1 37.6
05:10 1016 30 845 24.95 9.5 49.1 64 3 37.4
05:15 1016 30 845 24.95 9.5 49.1 63 2.9 37.2
05:20 1016 30 845 24.95 9.6 49.3 63 2.9 37.3
05:25 1016 30 845 24.95 9.6 49.3 63 3 37.4
05:30 1016 30 845 24.95 9.5 49.1 63 2.8 37.1
05:35 1016 30 845 24.95 9.5 49.1 63 2.9 37.2
05:40 1016 30 845 24.95 9.5 49 63 2.7 36.9
05:45 1016 30 845 24.95 9.5 49.1 63 2.8 37.1
05:50 1016 30 845 24.95 9.3 48.8 63 2.8 37
05:55 1016 30 845 24.95 9.3 48.7 63 2.7 36.8
06:00 1016 30 845 24.95 9.2 48.6 63 2.7 36.8
06:05 1016 30 845 24.95 9.2 48.6 63 2.6 36.6
06:10 1016 30 845 24.95 9.2 48.5 63 2.6 36.7
06:15 1015 29.97 845 24.95 9.1 48.4 63 2.4 36.4
06:20 1016 30 845 24.95 9.3 48.7 62 2.5 36.5
06:25 1015 29.97 845 24.95 9.3 48.7 62 2.4 36.3
06:30 1015 29.97 845 24.95 9.3 48.7 62 2.3 36.1
06:35 1015 29.97 845 24.95 9.4 48.9 61 2.2 35.9
06:40 1015 29.97 845 24.95 9.5 49.1 59 2 35.7
06:45 1015 29.97 845 24.95 9.6 49.3 58 1.9 35.4
06:50 1015 29.97 845 24.95 9.8 49.6 58 1.9 35.4
06:55 1015 29.97 844 24.92 9.7 49.5 58 1.9 35.4
07:00 1015 29.97 844 24.92 9.8 49.6 57 1.7 35.1
07:05 1015 29.97 844 24.92 9.9 49.7 56 1.5 34.7
07:10 1015 29.97 844 24.92 10 50 55 1.5 34.7
07:15 1015 29.97 844 24.92 10 50.1 56 1.6 34.9
07:20 1015 29.97 844 24.92 10 50.1 56 1.6 34.9
07:25 1015 29.97 844 24.92 10 50 56 1.8 35.2
07:30 1015 29.97 844 24.92 10 49.9 56 1.7 35
07:35 1015 29.97 844 24.92 10 49.9 56 1.7 35
07:40 1015 29.97 844 24.92 10 50 55 1.5 34.6
07:45 1015 29.97 844 24.92 10.1 50.2 55 1.5 34.8
07:50 1015 29.97 844 24.92 10.1 50.2 55 1.4 34.5
07:55 1015 29.97 844 24.92 10.3 50.5 54 1.3 34.4
08:00 1015 29.97 844 24.92 10.4 50.7 53 1.3 34.4
08:05 1015 29.97 844 24.92 10.6 51 52 1.2 34.1
08:10 1015 29.97 844 24.92 10.7 51.3 52 1.3 34.3
08:15 1015 29.97 844 24.92 10.8 51.4 52 1.4 34.5
08:20 1015 29.97 844 24.92 10.8 51.4 51 1.2 34.2
08:25 1015 29.97 844 24.92 10.9 51.6 51 1.2 34.1
08:30 1015 29.97 844 24.92 11 51.8 51 1.2 34.2
08:35 1015 29.97 844 24.92 11.1 51.9 50 1.1 33.9
08:40 1015 29.97 844 24.92 11.3 52.3 49 0.8 33.5
08:45 1015 29.97 844 24.92 11.4 52.6 48 1 33.8
08:50 1015 29.97 844 24.92 11.6 52.8 47 0.8 33.4
08:55 1015 29.97 844 24.92 11.9 53.3 46 0.7 33.2
09:00 1014 29.94 844 24.92 12.1 53.7 45 0.7 33.2
09:05 1014 29.94 844 24.92 12.3 54.1 45 0.7 33.2
09:10 1014 29.94 843 24.89 12.4 54.3 45 0.8 33.4
09:15 1014 29.94 843 24.89 12.5 54.4 44 0.7 33.3
09:20 1014 29.94 843 24.89 12.7 54.8 43 0.6 33.1
09:25 1014 29.94 843 24.89 13 55.3 43 0.6 33.1
09:30 1014 29.94 843 24.89 13.2 55.7 42 0.6 33.1
09:35 1014 29.94 843 24.89 13.4 56.1 41 0.5 33
09:40 1014 29.94 843 24.89 13.7 56.7 41 0.7 33.3
09:45 1014 29.94 843 24.89 14 57.3 40 0.6 33.1
09:50 1014 29.94 843 24.89 14.3 57.8 40 1 33.7
09:55 1014 29.94 843 24.89 14.6 58.2 39 0.8 33.4
10:00 1014 29.94 843 24.89 14.8 58.7 38 0.7 33.2
10:05 1014 29.94 843 24.89 15.2 59.4 36 0.4 32.7
10:10 1014 29.94 843 24.89 15.6 60.2 34 0.1 32.2
10:15 1014 29.94 843 24.89 15.9 60.7 34 0.2 32.4
10:20 1014 29.94 843 24.89 15.9 60.6 34 0.3 32.5
10:25 1014 29.94 843 24.89 15.9 60.5 34 0.1 32.2
10:30 1014 29.94 843 24.89 16.2 61.1 33 -0.1 31.9
10:35 1014 29.94 843 24.89 16.6 61.9 31 -0.3 31.5
10:40 1014 29.94 843 24.89 16.9 62.4 32 0.2 32.4
10:45 1014 29.94 843 24.89 17.1 62.8 31 -0.1 31.7
10:50 1014 29.94 843 24.89 17.3 63.1 31 -0.1 31.9
10:55 1014 29.94 843 24.89 17.4 63.3 31 0.2 32.3
11:00 1013 29.91 843 24.89 17.4 63.3 31 0.2 32.3
11:05 1013 29.91 843 24.89 17.5 63.5 31 0.2 32.4
11:10 1013 29.91 842 24.86 17.9 64.2 30 0.2 32.3
11:15 1013 29.91 842 24.86 17.7 63.8 31 0.3 32.5
11:20 1013 29.91 842 24.86 17.3 63.1 31 0.3 32.6
11:25 1013 29.91 842 24.86 17.2 62.9 32 0.4 32.7
11:30 1013 29.91 842 24.86 17 62.7 33 0.7 33.3
11:35 1013 29.91 842 24.86 16.9 62.5 33 0.7 33.2
11:40 1013 29.91 842 24.86 17.2 62.9 32 0.3 32.6
11:45 1013 29.91 842 24.86 17.7 63.9 31 0.6 33.2
11:50 1013 29.91 842 24.86 18.1 64.5 31 1 33.8
11:55 1013 29.91 842 24.86 18.3 64.9 31 1.2 34.2
12:00 1013 29.91 842 24.86 18.3 65 32 1.3 34.3
12:05 1013 29.91 842 24.86 18.9 66.1 29 0.8 33.5
12:10 1013 29.91 842 24.86 19.6 67.3 29 1.1 33.9
12:15 1012 29.88 842 24.86 19.3 66.7 30 1.4 34.5
12:20 1012 29.88 842 24.86 19 66.1 29 0.6 33.1
12:25 1012 29.88 841 24.83 19.1 66.4 29 0.7 33.2
12:30 1012 29.88 841 24.83 19.4 66.9 29 0.9 33.6
12:35 1012 29.88 841 24.83 19.3 66.7 29 0.9 33.6
12:40 1012 29.88 841 24.83 19.5 67.1 29 1 33.8
12:45 1012 29.88 841 24.83 20.1 68.2 27 0.7 33.3
12:50 1012 29.88 841 24.83 20.4 68.6 26 0.6 33
12:55 1012 29.88 841 24.83 20.8 69.4 24 -0.1 31.8
13:00 1012 29.88 841 24.83 21.5 70.7 25 0.6 33.1
13:05 1012 29.88 841 24.83 21.9 71.4 23 -0 32
13:10 1012 29.88 841 24.83 22 71.5 24 0.5 32.9
13:15 1012 29.88 841 24.83 21.8 71.3 23 0.1 32.1
13:20 1011 29.85 841 24.83 21.9 71.4 20 -2 28.4
13:25 1011 29.85 841 24.83 22.3 72.2 19 -2.4 27.7
13:30 1011 29.85 840 24.81 22.5 72.5 18 -3 26.7
13:35 1011 29.85 840 24.81 22.5 72.6 18 -2.6 27.3
13:40 1011 29.85 840 24.81 22.5 72.4 19 -2.1 28.3
13:45 1011 29.85 840 24.81 22.8 73 18 -2.3 27.8
13:50 1011 29.85 840 24.81 22.8 73 19 -1.7 29
13:55 1011 29.85 840 24.81 22.7 72.8 19 -2.2 28
14:00 1011 29.85 840 24.81 22.5 72.4 19 -2.1 28.2
14:05 1011 29.85 840 24.81 22.6 72.7 18 -2.7 27.1
14:10 1010 29.83 840 24.81 22.4 72.4 18 -2.5 27.4
14:15 1010 29.83 840 24.81 22.2 71.9 17 -3.7 25.3
14:20 1010 29.83 840 24.81 22.6 72.7 18 -2.4 27.7
14:25 1010 29.83 840 24.81 22.9 73.1 19 -2 28.4
14:30 1010 29.83 839 24.78 22.1 71.8 18 -2.8 26.9
14:35 1010 29.83 839 24.78 21.8 71.3 17 -3.9 25
14:40 1010 29.83 839 24.78 22 71.5 18 -3.3 26.1
14:45 1010 29.83 839 24.78 22.8 73 17 -3.1 26.4
14:50 1010 29.83 839 24.78 23.1 73.7 17 -2.8 26.9
14:55 1010 29.83 839 24.78 23.1 73.6 17 -2.8 26.9
15:00 1010 29.83 839 24.78 23.3 73.9 18 -2.4 27.6
15:05 1010 29.83 839 24.78 23 73.4 17 -3.3 26
15:10 1010 29.83 839 24.78 22.7 72.9 19 -2 28.4
15:15 1010 29.83 839 24.78 22.3 72.1 23 0.4 32.7
15:20 1010 29.83 839 24.78 22.1 71.8 19 -2.5 27.6
15:25 1010 29.83 839 24.78 22.1 71.7 20 -2.1 28.3
15:30 1010 29.83 839 24.78 22 71.6 21 -1 30.3
15:35 1010 29.83 839 24.78 22 71.5 22 -0.5 31.1
15:40 1010 29.83 839 24.78 21.9 71.3 21 -1.3 29.7
15:45 1010 29.83 839 24.78 21.8 71.2 23 -0.3 31.4
15:50 1010 29.83 839 24.78 21.7 71 21 -1.5 29.2
15:55 1010 29.83 839 24.78 21.7 71 23 -0.1 31.9
16:00 1009 29.8 839 24.78 21.8 71.3 20 -1.6 29.1
16:05 1009 29.8 839 24.78 21.8 71.2 27 2.2 35.9
16:10 1010 29.83 839 24.78 20.7 69.2 31 3 37.5
16:15 1010 29.83 839 24.78 19.6 67.2 33 3 37.5
16:20 1010 29.83 839 24.78 19.2 66.6 33 2.8 37.1
16:25 1010 29.83 839 24.78 19.2 66.6 33 2.9 37.2
16:30 1010 29.83 839 24.78 19 66.2 34 2.8 37
16:35 1010 29.83 839 24.78 18.8 65.8 34 2.6 36.6
16:40 1010 29.83 839 24.78 18.8 65.8 32 1.9 35.5
16:45 1010 29.83 839 24.78 19.5 67 31 1.8 35.3
16:50 1010 29.83 839 24.78 19.8 67.6 31 2.5 36.5
16:55 1010 29.83 839 24.78 19.6 67.3 32 2.5 36.6
17:00 1010 29.83 839 24.78 19.2 66.6 33 2.6 36.8
17:05 1010 29.83 839 24.78 19 66.3 33 2.6 36.8
17:10 1010 29.83 839 24.78 19.1 66.3 32 2.3 36.2
17:15 1010 29.83 839 24.78 19.4 67 33 2.9 37.1
17:20 1010 29.83 839 24.78 19.6 67.3 32 2.7 36.8
17:25 1010 29.83 839 24.78 20 67.9 32 3.1 37.7
17:30 1010 29.83 839 24.78 19.5 67.2 33 3.1 37.5
17:35 1010 29.83 839 24.78 18.8 65.9 36 3.4 38.2
17:40 1010 29.83 839 24.78 18.3 65 38 3.8 38.9
17:45 1010 29.83 839 24.78 18.2 64.8 37 3.6 38.5
17:50 1010 29.83 840 24.81 17.9 64.1 40 4.1 39.3
17:55 1010 29.83 840 24.81 17.4 63.2 41 4 39.2
18:00 1010 29.83 840 24.81 17.5 63.6 39 3.6 38.4
18:05 1010 29.83 840 24.81 17.5 63.4 40 3.9 38.9
18:10 1011 29.85 840 24.81 17.2 63 40 3.7 38.6
18:15 1011 29.85 840 24.81 17.1 62.8 41 3.7 38.7
18:20 1011 29.85 840 24.81 17 62.7 34 1.2 34.1
18:25 1011 29.85 840 24.81 17.7 63.8 31 0.6 33.2
18:30 1011 29.85 840 24.81 18.2 64.7 36 3.2 37.7
18:35 1011 29.85 840 24.81 17.6 63.6 37 2.9 37.2
18:40 1011 29.85 840 24.81 17.3 63.1 39 3.2 37.7
18:45 1011 29.85 840 24.81 17.2 63 48 6.2 43.1
18:50 1011 29.85 840 24.81 17 62.7 39 3.2 37.7
18:55 1011 29.85 840 24.81 16.7 62 41 3.6 38.5
19:00 1011 29.85 840 24.81 16.7 62 32 0.1 32.2
19:05 1011 29.85 840 24.81 17.4 63.3 21 -5 23.1
19:10 1011 29.85 840 24.81 18 64.4 21 -4.7 23.5
19:15 1011 29.85 840 24.81 17.9 64.3 20 -5 23.1
19:20 1011 29.85 841 24.83 17.8 64.1 21 -4.7 23.5
19:25 1011 29.85 841 24.83 17.5 63.6 21 -4.8 23.3
19:30 1012 29.88 841 24.83 17.4 63.4 21 -5.1 22.8
19:35 1012 29.88 841 24.83 17.3 63.2 22 -4.7 23.5
19:40 1012 29.88 841 24.83 17.2 63 21 -5 23.1
19:45 1012 29.88 841 24.83 17.2 63 22 -4.8 23.4
19:50 1012 29.88 841 24.83 17.1 62.7 21 -5.3 22.4
19:55 1012 29.88 841 24.83 16.9 62.3 23 -4.5 23.8
20:00 1012 29.88 841 24.83 16.8 62.2 21 -5.4 22.2
20:05 1012 29.88 841 24.83 17 62.5 22 -4.7 23.5
20:10 1012 29.88 841 24.83 16.7 62.1 23 -4.4 24
20:15 1012 29.88 841 24.83 16.6 61.8 23 -4.6 23.6
20:20 1012 29.88 841 24.83 16.5 61.6 23 -4.6 23.8
20:25 1012 29.88 841 24.83 16.5 61.7 23 -4.5 23.9
20:30 1012 29.88 841 24.83 16.4 61.6 22 -5 22.9
20:35 1012 29.88 841 24.83 16.3 61.4 23 -4.5 23.9
20:40 1012 29.88 841 24.83 16.1 61 24 -4.5 23.8
20:45 1012 29.88 841 24.83 15.9 60.7 24 -4.8 23.4
20:50 1012 29.88 841 24.83 15.9 60.6 23 -5.1 22.7
20:55 1012 29.88 841 24.83 15.7 60.3 23 -5.2 22.7
21:00 1012 29.88 842 24.86 15.7 60.3 22 -6.1 21.1
21:05 1012 29.88 842 24.86 16.1 60.9 21 -6.3 20.7
21:10 1013 29.91 842 24.86 16.2 61.1 22 -5.6 22
21:15 1013 29.91 842 24.86 16 60.7 22 -5.7 21.7
21:20 1013 29.91 842 24.86 15.9 60.7 23 -5.3 22.4
21:25 1013 29.91 842 24.86 15.8 60.5 24 -4.8 23.4
21:30 1013 29.91 843 24.89 15.6 60 24 -4.8 23.4
21:35 1014 29.94 843 24.89 15.5 59.9 25 -4.4 24
21:40 1014 29.94 843 24.89 15.3 59.5 26 -4.2 24.5
21:45 1014 29.94 843 24.89 15.1 59.1 28 -3.3 26.1
21:50 1014 29.94 843 24.89 14.7 58.5 30 -2.5 27.4
21:55 1014 29.94 843 24.89 14.4 57.9 32 -1.8 28.7
22:00 1014 29.94 843 24.89 14.1 57.3 34 -1.4 29.5
22:05 1014 29.94 843 24.89 13.8 56.8 35 -1.2 29.8
22:10 1014 29.94 843 24.89 13.5 56.4 36 -1.1 30
22:15 1014 29.94 844 24.92 13.4 56.1 36 -1.4 29.4
22:20 1014 29.94 844 24.92 13.4 56 36 -1.2 29.8
22:25 1015 29.97 844 24.92 13.3 55.9 41 0.4 32.8
22:30 1015 29.97 844 24.92 12.9 55.2 45 1.2 34.1
22:35 1015 29.97 844 24.92 12.6 54.7 45 1.2 34.1
22:40 1015 29.97 845 24.95 12.5 54.4 43 0.3 32.5
22:45 1015 29.97 845 24.95 12.3 54.2 45 0.6 33.2
22:50 1015 29.97 844 24.92 11.9 53.3 47 1 33.8
22:55 1015 29.97 844 24.92 11.6 52.8 48 1.1 34
23:00 1015 29.97 845 24.95 11.4 52.6 49 1.2 34.2
23:05 1016 30 845 24.95 11.3 52.4 49 1.2 34.1
23:10 1015 29.97 845 24.95 11.3 52.3 51 1.4 34.6
23:15 1015 29.97 845 24.95 11.2 52.1 51 1.4 34.6
23:20 1015 29.97 845 24.95 11.1 52 51 1.4 34.5
23:25 1015 29.97 844 24.92 11.2 52.2 48 0.7 33.2
23:30 1014 29.94 844 24.92 11.4 52.5 49 1 33.8
23:35 1014 29.94 844 24.92 11.2 52.2 50 1.3 34.3
23:40 1015 29.97 844 24.92 11 51.8 51 1.4 34.4
23:45 1015 29.97 844 24.92 10.8 51.4 52 1.4 34.6
23:50 1015 29.97 844 24.92 10.8 51.4 52 1.4 34.5
23:55 1015 29.97 844 24.92 10.8 51.4 54 1.9 35.5
24:00 1015 29.97 844 24.92 10.5 50.9 60 3.2 37.7